Aérodrome :
LOGIN :

S'inscrire | Disclaimer

   EN    FR    IT 

 










Légende :    VFR   VFR Marginal   IFR   IFR Intensif   IFR Très Intensif
Visi : 
Plafond : 
>= 8 km
>= 3000ft
5 à 8 km
1000 à 3000 ft
1500m à 5 km
500 à 1000 ft
800 à 1500m
200 à 500 ft
< 800m
< 200 ft
Symboles :   Orages  Brouillard  Fortes neiges  Fortes précipitations  Vent > 20 kt
SIGMETs :   Divers  Orages  Givrage  Turbulence  Onde Orograph.  Cendres Volcan.






- Altitude de l'aérodrome : 364 ft
- Code IATA : FRA


EDDF - Frankfurt Int.

DERNIER METAR :
  • 172150Z 20011KT 9999 SCT032 BKN046 08/05 Q1019 NOSIG

METARs EXPIRÉS :
  • 172120Z 18010KT 9999 FEW036 07/05 Q1019 NOSIG
  • 172050Z 20005KT 9999 FEW036 07/05 Q1019 NOSIG
  • 172020Z 26004KT 200V310 9999 FEW032 BKN038 06/05 Q1019 NOSIG
  • 171950Z 19004KT 9999 FEW032 BKN039 06/05 Q1018 NOSIG
  • 171920Z 19005KT 9999 SCT040 06/05 Q1018 NOSIG

TAF TAF EDDF
Valide du 17 à 18h jusqu'au 19 à 00h UTC


171700Z 1718/1824 21010G20KT 9999 SCT030
TEMPO 1718/1720 26015G25KT SHRA BKN030CB
PROB40
TEMPO 1718/1720 26020G35KT 4500 TSRA BKN020CB
PROB30
TEMPO 1721/1802 26015G30KT SHRA BKN030CB
TEMPO 1810/1815 24015G25KT



MET'MAP, la Météo Aéronautique d'un coup d'oeil ! - Copyright ORBIFLY Décembre 2007 - Disclaimer

ORBIFLY MET'MAP TEAM :

Programmation & Développement : Alexandra Zaïnal
Sur une idée originale de : Baudouin d'Aumeries
Assistance à la programmation : Marc-Olivier Méhu
Soutien technique & logistique : Manuel Goepfert

Contact : metmap@orbifly.com




SOURCES & CREDITS :

   NOAA